createdAt,value
2018-04-10T00:00:58.600Z,0.00
2018-04-10T00:01:59.297Z,0.00
2018-04-10T00:02:58.581Z,0.00
2018-04-10T00:03:58.526Z,0.00
2018-04-10T00:04:58.540Z,0.00
2018-04-10T00:05:58.475Z,0.00
2018-04-10T00:06:58.492Z,0.00
2018-04-10T00:07:58.426Z,0.00
2018-04-10T00:08:58.398Z,0.00
2018-04-10T00:09:58.408Z,0.00
2018-04-10T00:10:58.365Z,0.00
2018-04-10T00:11:58.325Z,0.00
2018-04-10T00:12:58.303Z,0.00
2018-04-10T00:13:58.290Z,0.00
2018-04-10T00:14:58.290Z,0.00
2018-04-10T00:15:58.227Z,0.00
2018-04-10T00:16:58.216Z,0.00
2018-04-10T00:17:58.178Z,0.00
2018-04-10T00:18:58.148Z,0.00
2018-04-10T00:19:58.161Z,0.00
2018-04-10T00:20:58.101Z,0.00
2018-04-10T00:21:58.078Z,0.00
2018-04-10T00:22:58.055Z,0.00
2018-04-10T00:23:58.353Z,0.00
2018-04-10T00:24:58.007Z,0.00
2018-04-10T00:25:57.980Z,0.00
2018-04-10T00:26:57.953Z,0.00
2018-04-10T00:27:57.926Z,0.00
2018-04-10T00:28:57.932Z,0.00
2018-04-10T00:29:57.876Z,0.00
2018-04-10T00:30:57.860Z,0.00
2018-04-10T00:31:57.860Z,0.00
2018-04-10T00:32:57.800Z,0.00
2018-04-10T00:33:57.797Z,0.00
2018-04-10T00:34:57.789Z,0.00
2018-04-10T00:35:57.732Z,0.00
2018-04-10T00:36:58.299Z,0.00
2018-04-10T00:37:57.675Z,0.00
2018-04-10T00:38:57.656Z,0.00
2018-04-10T00:39:57.848Z,0.00
2018-04-10T00:40:57.605Z,0.00
2018-04-10T00:41:57.575Z,0.00
2018-04-10T00:42:57.553Z,0.00
2018-04-10T00:43:57.528Z,0.00
2018-04-10T00:44:57.858Z,0.00
2018-04-10T00:45:57.478Z,0.00
2018-04-10T00:46:58.341Z,0.00
2018-04-10T00:47:57.428Z,0.00
2018-04-10T00:48:57.402Z,0.00
2018-04-10T00:49:57.425Z,0.00
2018-04-10T00:50:57.389Z,0.00
2018-04-10T00:51:57.329Z,0.00
2018-04-10T00:52:57.807Z,0.00
2018-04-10T00:53:57.276Z,0.00
2018-04-10T00:54:57.253Z,0.00
2018-04-10T00:55:57.278Z,0.00
2018-04-10T00:56:57.201Z,0.00
2018-04-10T00:57:57.181Z,0.00
2018-04-10T00:58:57.810Z,0.00
2018-04-10T00:59:57.124Z,0.00
2018-04-10T01:00:57.148Z,0.00
2018-04-10T01:01:57.802Z,0.00
2018-04-10T01:02:57.056Z,0.00
2018-04-10T01:03:57.075Z,0.00
2018-04-10T01:04:57.805Z,0.00
2018-04-10T01:05:56.983Z,0.00
2018-04-10T01:06:56.950Z,0.00
2018-04-10T01:07:56.926Z,0.00
2018-04-10T01:08:56.939Z,0.00
2018-04-10T01:09:57.810Z,0.00
2018-04-10T01:10:56.861Z,0.00
2018-04-10T01:11:56.876Z,0.00
2018-04-10T01:12:57.381Z,0.00
2018-04-10T01:13:56.783Z,0.00
2018-04-10T01:14:56.760Z,0.00
2018-04-10T01:15:57.309Z,0.00
2018-04-10T01:16:56.753Z,0.00
2018-04-10T01:17:56.673Z,0.00
2018-04-10T01:18:56.649Z,0.00
2018-04-10T01:19:57.309Z,0.00
2018-04-10T01:20:56.601Z,0.00
2018-04-10T01:21:56.611Z,0.00
2018-04-10T01:22:56.549Z,0.00
2018-04-10T01:23:57.316Z,0.00
2018-04-10T01:24:56.502Z,0.00
2018-04-10T01:25:56.562Z,0.00
2018-04-10T01:26:57.326Z,0.00
2018-04-10T01:27:56.427Z,0.00
2018-04-10T01:28:56.409Z,0.00
2018-04-10T01:30:03.308Z,0.00
2018-04-10T01:30:56.396Z,0.00
2018-04-10T01:31:56.325Z,0.00
2018-04-10T01:32:56.299Z,0.00
2018-04-10T01:33:56.306Z,0.00
2018-04-10T01:34:56.833Z,0.00
2018-04-10T01:35:56.229Z,0.00
2018-04-10T01:36:56.201Z,0.00
2018-04-10T01:37:56.809Z,0.00
2018-04-10T01:38:56.187Z,0.00
2018-04-10T01:39:56.119Z,0.00
2018-04-10T01:40:56.095Z,0.00
2018-04-10T01:41:56.069Z,0.00
2018-04-10T01:42:56.042Z,0.00
2018-04-10T01:43:56.717Z,0.00
2018-04-10T01:44:56.034Z,0.00
2018-04-10T01:45:56.809Z,0.00
2018-04-10T01:46:55.959Z,0.00
2018-04-10T01:47:55.920Z,0.00
2018-04-10T01:48:57.718Z,0.00
2018-04-10T01:49:55.910Z,0.00
2018-04-10T01:50:55.846Z,0.00
2018-04-10T01:51:55.820Z,0.00
2018-04-10T01:52:55.793Z,0.00
2018-04-10T01:53:55.765Z,0.00
2018-04-10T01:54:55.862Z,0.00
2018-04-10T01:55:55.752Z,0.00
2018-04-10T01:56:55.692Z,0.00
2018-04-10T01:57:56.312Z,0.00
2018-04-10T01:58:55.644Z,0.00
2018-04-10T01:59:55.654Z,0.00
2018-04-10T02:00:55.858Z,0.00
2018-04-10T02:01:58.311Z,0.00
2018-04-10T02:02:55.543Z,0.00
2018-04-10T02:03:55.554Z,0.00
2018-04-10T02:04:55.489Z,0.00
2018-04-10T02:05:55.499Z,0.00
2018-04-10T02:06:55.446Z,0.00
2018-04-10T02:07:56.315Z,0.00
2018-04-10T02:08:55.437Z,0.00
2018-04-10T02:09:55.367Z,0.00
2018-04-10T02:10:55.340Z,0.00
2018-04-10T02:11:55.813Z,0.00
2018-04-10T02:12:55.286Z,0.00
2018-04-10T02:13:55.296Z,0.00
2018-04-10T02:14:55.234Z,0.00
2018-04-10T02:15:55.819Z,0.00
2018-04-10T02:16:55.185Z,0.00
2018-04-10T02:17:55.815Z,0.00
2018-04-10T02:18:55.357Z,0.00
2018-04-10T02:19:55.109Z,0.00
2018-04-10T02:20:55.366Z,0.00
2018-04-10T02:21:55.058Z,0.00
2018-04-10T02:22:55.035Z,0.00
2018-04-10T02:23:55.822Z,0.00
2018-04-10T02:24:56.347Z,0.00
2018-04-10T02:25:54.955Z,0.00
2018-04-10T02:26:54.928Z,0.00
2018-04-10T02:27:54.905Z,0.00
2018-04-10T02:28:54.978Z,0.00
2018-04-10T02:29:54.883Z,0.00
2018-04-10T02:30:54.828Z,0.00
2018-04-10T02:31:54.802Z,0.00
2018-04-10T02:32:54.781Z,0.00
2018-04-10T02:33:54.865Z,0.00
2018-04-10T02:34:54.727Z,0.00
2018-04-10T02:35:54.705Z,0.00
2018-04-10T02:36:55.323Z,0.00
2018-04-10T02:37:54.651Z,0.00
2018-04-10T02:38:54.670Z,0.00
2018-04-10T02:39:55.324Z,0.00
2018-04-10T02:40:54.574Z,0.00
2018-04-10T02:41:54.548Z,0.00
2018-04-10T02:42:55.320Z,0.00
2018-04-10T02:43:54.541Z,0.00
2018-04-10T02:44:54.472Z,0.00
2018-04-10T02:45:55.336Z,0.00
2018-04-10T02:46:54.421Z,0.00
2018-04-10T02:47:54.440Z,0.00
2018-04-10T02:48:54.371Z,0.00
2018-04-10T02:49:54.344Z,0.00
2018-04-10T02:50:54.820Z,0.00
2018-04-10T02:51:54.292Z,0.00
2018-04-10T02:52:54.312Z,0.00
2018-04-10T02:53:54.822Z,0.00
2018-04-10T02:54:54.217Z,0.00
2018-04-10T02:55:54.188Z,0.00
2018-04-10T02:56:54.163Z,0.00
2018-04-10T02:57:54.376Z,0.00
2018-04-10T02:58:54.112Z,0.00
2018-04-10T02:59:54.090Z,0.00
2018-04-10T03:00:54.825Z,0.00
2018-04-10T03:01:54.033Z,0.00
2018-04-10T03:02:54.046Z,0.00
2018-04-10T03:03:53.986Z,0.00
2018-04-10T03:04:53.959Z,0.00
2018-04-10T03:05:53.967Z,0.00
2018-04-10T03:06:53.908Z,0.00
2018-04-10T03:07:54.827Z,0.00
2018-04-10T03:08:53.859Z,0.00
2018-04-10T03:09:53.831Z,0.00
2018-04-10T03:10:53.843Z,0.00
2018-04-10T03:11:54.330Z,0.00
2018-04-10T03:12:53.753Z,0.00
2018-04-10T03:13:53.741Z,0.00
2018-04-10T03:14:53.751Z,0.00
2018-04-10T03:15:54.324Z,0.00
2018-04-10T03:16:53.660Z,0.00
2018-04-10T03:17:53.624Z,0.00
2018-04-10T03:18:53.603Z,0.00
2018-04-10T03:19:53.869Z,0.00
2018-04-10T03:20:53.550Z,0.00
2018-04-10T03:21:53.531Z,0.00
2018-04-10T03:22:53.870Z,0.00
2018-04-10T03:23:54.323Z,0.00
2018-04-10T03:24:53.451Z,0.00
2018-04-10T03:25:53.459Z,0.00
2018-04-10T03:26:54.326Z,0.00
2018-04-10T03:27:53.410Z,0.00
2018-04-10T03:28:53.371Z,0.00
2018-04-10T03:29:53.321Z,0.00
2018-04-10T03:30:53.329Z,0.00
2018-04-10T03:31:53.272Z,0.00
2018-04-10T03:32:53.308Z,0.00
2018-04-10T03:33:53.221Z,0.00
2018-04-10T03:34:53.828Z,0.00
2018-04-10T03:35:53.205Z,0.00
2018-04-10T03:36:53.151Z,0.00
2018-04-10T03:37:53.827Z,0.00
2018-04-10T03:38:53.118Z,0.00
2018-04-10T03:39:53.069Z,0.00
2018-04-10T03:40:53.075Z,0.00
2018-04-10T03:41:53.009Z,0.00
2018-04-10T03:42:53.380Z,0.00
2018-04-10T03:43:52.997Z,0.00
2018-04-10T03:44:52.944Z,0.00
2018-04-10T03:45:53.376Z,0.00
2018-04-10T03:46:52.885Z,0.00
2018-04-10T03:47:53.399Z,0.00
2018-04-10T03:48:52.833Z,0.00
2018-04-10T03:49:52.810Z,0.00
2018-04-10T03:50:52.820Z,0.00
2018-04-10T03:51:52.756Z,0.00
2018-04-10T03:52:52.886Z,0.00
2018-04-10T03:53:52.706Z,0.00
2018-04-10T03:54:52.682Z,0.00
2018-04-10T03:55:52.654Z,0.00
2018-04-10T03:56:53.332Z,0.00
2018-04-10T03:57:52.640Z,0.00
2018-04-10T03:58:52.611Z,0.00
2018-04-10T03:59:52.555Z,0.00
2018-04-10T04:00:53.337Z,0.00
2018-04-10T04:01:52.499Z,0.00
2018-04-10T04:02:53.333Z,0.00
2018-04-10T04:03:52.497Z,0.00
2018-04-10T04:04:52.427Z,0.00
2018-04-10T04:05:53.336Z,0.00
2018-04-10T04:06:52.400Z,0.00
2018-04-10T04:07:52.348Z,0.00
2018-04-10T04:08:52.358Z,0.00
2018-04-10T04:09:52.836Z,0.00
2018-04-10T04:10:52.269Z,0.00
2018-04-10T04:11:52.242Z,5.63
2018-04-10T04:12:52.831Z,5.63
2018-04-10T04:13:52.234Z,5.63
2018-04-10T04:14:52.168Z,5.63
2018-04-10T04:15:52.832Z,5.63
2018-04-10T04:16:52.117Z,11.25
2018-04-10T04:17:52.088Z,11.25
2018-04-10T04:18:52.127Z,11.25
2018-04-10T04:19:52.382Z,11.25
2018-04-10T04:20:52.013Z,11.25
2018-04-10T04:21:52.834Z,16.88
2018-04-10T04:22:51.962Z,16.88
2018-04-10T04:23:51.968Z,16.88
2018-04-10T04:24:51.915Z,22.50
2018-04-10T04:25:51.916Z,22.50
2018-04-10T04:26:51.862Z,22.50
2018-04-10T04:27:51.831Z,28.13
2018-04-10T04:28:51.809Z,28.13
2018-04-10T04:29:51.795Z,33.75
2018-04-10T04:30:51.879Z,33.75
2018-04-10T04:31:51.730Z,39.38
2018-04-10T04:32:51.742Z,39.38
2018-04-10T04:33:51.678Z,45.00
2018-04-10T04:34:51.661Z,45.00
2018-04-10T04:35:51.666Z,50.63
2018-04-10T04:36:52.360Z,50.63
2018-04-10T04:37:51.612Z,56.25
2018-04-10T04:38:51.584Z,61.88
2018-04-10T04:39:51.526Z,61.88
2018-04-10T04:40:51.531Z,61.88
2018-04-10T04:41:52.335Z,61.88
2018-04-10T04:42:51.492Z,67.50
2018-04-10T04:43:51.423Z,73.13
2018-04-10T04:44:52.336Z,73.13
2018-04-10T04:45:51.414Z,78.75
2018-04-10T04:46:51.353Z,78.75
2018-04-10T04:47:51.321Z,84.38
2018-04-10T04:48:51.328Z,84.38
2018-04-10T04:49:51.841Z,90.00
2018-04-10T04:50:51.254Z,95.63
2018-04-10T04:51:51.221Z,95.63
2018-04-10T04:52:51.843Z,101.25
2018-04-10T04:53:51.201Z,106.88
2018-04-10T04:54:51.142Z,106.88
2018-04-10T04:55:51.383Z,112.50
2018-04-10T04:56:51.093Z,112.50
2018-04-10T04:57:51.066Z,118.13
2018-04-10T04:58:51.048Z,123.75
2018-04-10T04:59:51.051Z,123.75
2018-04-10T05:00:50.998Z,129.38
2018-04-10T05:01:50.971Z,135.00
2018-04-10T05:02:50.941Z,135.00
2018-04-10T05:03:51.843Z,140.63
2018-04-10T05:04:50.930Z,140.63
2018-04-10T05:05:51.842Z,146.25
2018-04-10T05:06:50.841Z,151.88
2018-04-10T05:07:50.815Z,157.50
2018-04-10T05:08:50.792Z,157.50
2018-04-10T05:09:50.803Z,163.13
2018-04-10T05:10:51.343Z,163.13
2018-04-10T05:11:51.348Z,168.75
2018-04-10T05:12:51.347Z,168.75
2018-04-10T05:13:50.676Z,174.38
2018-04-10T05:14:50.692Z,180.00
2018-04-10T05:15:50.618Z,180.00
2018-04-10T05:16:50.591Z,185.63
2018-04-10T05:17:50.571Z,185.63
2018-04-10T05:18:51.347Z,185.63
2018-04-10T05:19:50.557Z,191.25
2018-04-10T05:20:51.347Z,191.25
2018-04-10T05:21:50.464Z,196.88
2018-04-10T05:22:50.436Z,196.88
2018-04-10T05:23:50.419Z,202.50
2018-04-10T05:24:50.427Z,202.50
2018-04-10T05:25:50.400Z,208.13
2018-04-10T05:26:50.841Z,208.13
2018-04-10T05:27:51.249Z,213.75
2018-04-10T05:28:50.856Z,213.75
2018-04-10T05:29:50.265Z,219.38
2018-04-10T05:30:50.272Z,219.38
2018-04-10T05:31:50.853Z,225.00
2018-04-10T05:32:50.193Z,225.00
2018-04-10T05:33:50.182Z,230.63
2018-04-10T05:34:50.847Z,230.63
2018-04-10T05:35:50.156Z,236.25
2018-04-10T05:36:50.091Z,236.25
2018-04-10T05:37:50.099Z,241.88
2018-04-10T05:38:50.050Z,241.88
2018-04-10T05:39:50.048Z,247.50
2018-04-10T05:40:49.998Z,247.50
2018-04-10T05:41:49.968Z,247.50
2018-04-10T05:42:49.973Z,253.13
2018-04-10T05:43:50.849Z,253.13
2018-04-10T05:44:49.897Z,258.75
2018-04-10T05:45:49.873Z,258.75
2018-04-10T05:46:49.895Z,264.38
2018-04-10T05:47:49.827Z,264.38
2018-04-10T05:48:49.800Z,264.38
2018-04-10T05:49:50.345Z,270.00
2018-04-10T05:50:49.760Z,270.00
2018-04-10T05:51:49.777Z,270.00
2018-04-10T05:52:49.895Z,275.63
2018-04-10T05:53:49.678Z,275.63
2018-04-10T05:54:49.653Z,275.63
2018-04-10T05:55:49.621Z,281.25
2018-04-10T05:56:49.605Z,286.88
2018-04-10T05:57:49.618Z,281.25
2018-04-10T05:58:50.347Z,286.88
2018-04-10T05:59:49.567Z,286.88
2018-04-10T06:00:49.505Z,286.88
2018-04-10T06:01:50.353Z,286.88
2018-04-10T06:02:49.495Z,292.50
2018-04-10T06:03:49.425Z,292.50
2018-04-10T06:04:49.418Z,292.50
2018-04-10T06:05:51.307Z,298.13
2018-04-10T06:06:49.389Z,298.13
2018-04-10T06:07:49.329Z,298.13
2018-04-10T06:08:49.389Z,298.13
2018-04-10T06:09:50.258Z,298.13
2018-04-10T06:10:49.258Z,298.13
2018-04-10T06:11:49.856Z,303.75
2018-04-10T06:12:49.247Z,303.75
2018-04-10T06:13:49.854Z,303.75
2018-04-10T06:14:49.168Z,303.75
2018-04-10T06:15:49.871Z,309.38
2018-04-10T06:16:49.150Z,309.38
2018-04-10T06:17:49.394Z,309.38
2018-04-10T06:18:49.089Z,309.38
2018-04-10T06:19:49.898Z,315.00
2018-04-10T06:20:49.022Z,315.00
2018-04-10T06:21:48.991Z,315.00
2018-04-10T06:22:49.853Z,315.00
2018-04-10T06:23:48.980Z,315.00
2018-04-10T06:24:48.927Z,320.63
2018-04-10T06:25:49.886Z,320.63
2018-04-10T06:26:48.909Z,320.63
2018-04-10T06:27:48.896Z,320.63
2018-04-10T06:28:48.850Z,320.63
2018-04-10T06:29:49.351Z,320.63
2018-04-10T06:30:48.773Z,320.63
2018-04-10T06:31:49.354Z,320.63
2018-04-10T06:32:48.728Z,320.63
2018-04-10T06:33:48.904Z,326.25
2018-04-10T06:34:48.684Z,326.25
2018-04-10T06:35:49.359Z,331.88
2018-04-10T06:36:48.642Z,326.25
2018-04-10T06:37:49.355Z,326.25
2018-04-10T06:38:48.623Z,326.25
2018-04-10T06:39:49.353Z,331.88
2018-04-10T06:40:48.542Z,331.88
2018-04-10T06:41:48.543Z,331.88
2018-04-10T06:42:48.485Z,331.88
2018-04-10T06:43:48.898Z,331.88
2018-04-10T06:44:48.440Z,331.88
2018-04-10T06:45:49.359Z,331.88
2018-04-10T06:46:48.450Z,331.88
2018-04-10T06:47:48.897Z,331.88
2018-04-10T06:48:48.373Z,337.50
2018-04-10T06:49:48.888Z,337.50
2018-04-10T06:50:48.297Z,337.50
2018-04-10T06:51:48.866Z,337.50
2018-04-10T06:52:48.251Z,337.50
2018-04-10T06:53:48.412Z,337.50
2018-04-10T06:54:48.205Z,337.50
2018-04-10T06:55:48.860Z,337.50
2018-04-10T06:56:48.271Z,337.50
2018-04-10T06:57:48.405Z,337.50
2018-04-10T06:58:48.141Z,337.50
2018-04-10T06:59:48.085Z,337.50
2018-04-10T07:00:48.408Z,337.50
2018-04-10T07:01:48.038Z,337.50
2018-04-10T07:02:48.861Z,343.13
2018-04-10T07:03:47.998Z,337.50
2018-04-10T07:04:48.411Z,337.50
2018-04-10T07:05:47.945Z,343.13
2018-04-10T07:06:48.865Z,337.50
2018-04-10T07:07:47.932Z,337.50
2018-04-10T07:08:48.865Z,337.50
2018-04-10T07:09:47.896Z,337.50
2018-04-10T07:10:48.360Z,337.50
2018-04-10T07:11:47.800Z,337.50
2018-04-10T07:12:48.364Z,337.50
2018-04-10T07:13:47.756Z,337.50
2018-04-10T07:14:47.918Z,337.50
2018-04-10T07:15:47.711Z,337.50
2018-04-10T07:16:47.721Z,337.50
2018-04-10T07:17:47.660Z,337.50
2018-04-10T07:18:47.637Z,343.13
2018-04-10T07:19:48.417Z,343.13
2018-04-10T07:20:47.625Z,343.13
2018-04-10T07:21:48.368Z,343.13
2018-04-10T07:22:47.547Z,343.13
2018-04-10T07:23:48.367Z,343.13
2018-04-10T07:24:47.495Z,343.13
2018-04-10T07:25:47.935Z,337.50
2018-04-10T07:26:47.450Z,337.50
2018-04-10T07:27:48.414Z,337.50
2018-04-10T07:28:47.403Z,337.50
2018-04-10T07:29:47.382Z,337.50
2018-04-10T07:30:47.424Z,343.13
2018-04-10T07:31:47.338Z,343.13
2018-04-10T07:32:47.315Z,343.13
2018-04-10T07:33:47.290Z,343.13
2018-04-10T07:34:47.268Z,343.13
2018-04-10T07:35:47.414Z,343.13
2018-04-10T07:36:47.223Z,343.13
2018-04-10T07:37:47.420Z,343.13
2018-04-10T07:38:47.173Z,337.50
2018-04-10T07:39:47.891Z,343.13
2018-04-10T07:40:47.132Z,337.50
2018-04-10T07:41:47.429Z,337.50
2018-04-10T07:42:47.088Z,337.50
2018-04-10T07:43:47.871Z,337.50
2018-04-10T07:44:47.039Z,337.50
2018-04-10T07:45:47.868Z,337.50
2018-04-10T07:46:47.041Z,337.50
2018-04-10T07:47:47.416Z,337.50
2018-04-10T07:48:46.965Z,337.50
2018-04-10T07:49:46.929Z,337.50
2018-04-10T07:50:46.941Z,337.50
2018-04-10T07:51:47.416Z,337.50
2018-04-10T07:52:47.375Z,337.50
2018-04-10T07:53:46.896Z,337.50
2018-04-10T07:54:47.371Z,337.50
2018-04-10T07:55:46.792Z,337.50
2018-04-10T07:56:47.368Z,337.50
2018-04-10T07:57:46.745Z,337.50
2018-04-10T07:58:46.920Z,337.50
2018-04-10T07:59:46.697Z,343.13
2018-04-10T08:00:47.428Z,337.50
2018-04-10T08:01:46.654Z,337.50
2018-04-10T08:02:47.382Z,337.50
2018-04-10T08:03:46.646Z,337.50
2018-04-10T08:04:46.968Z,337.50
2018-04-10T08:05:46.564Z,331.88
2018-04-10T08:06:47.374Z,331.88
2018-04-10T08:07:46.524Z,331.88
2018-04-10T08:08:46.497Z,331.88
2018-04-10T08:09:47.008Z,326.25
2018-04-10T08:10:46.449Z,326.25
2018-04-10T08:11:47.372Z,326.25
2018-04-10T08:12:46.457Z,326.25
2018-04-10T08:13:47.379Z,326.25
2018-04-10T08:14:46.409Z,326.25
2018-04-10T08:15:46.422Z,326.25
2018-04-10T08:16:46.386Z,326.25
2018-04-10T08:17:46.871Z,326.25
2018-04-10T08:18:46.279Z,326.25
2018-04-10T08:19:46.874Z,326.25
2018-04-10T08:20:46.233Z,326.25
2018-04-10T08:21:46.418Z,326.25
2018-04-10T08:22:46.223Z,320.63
2018-04-10T08:23:46.164Z,320.63
2018-04-10T08:24:46.170Z,320.63
2018-04-10T08:25:46.119Z,320.63
2018-04-10T08:26:46.163Z,320.63
2018-04-10T08:27:48.876Z,326.25
2018-04-10T08:28:46.054Z,315.00
2018-04-10T08:29:46.032Z,315.00
2018-04-10T08:30:46.011Z,315.00
2018-04-10T08:31:46.433Z,315.00
2018-04-10T08:32:45.965Z,320.63
2018-04-10T08:33:46.878Z,315.00
2018-04-10T08:34:45.926Z,315.00
2018-04-10T08:35:45.901Z,309.38
2018-04-10T08:36:45.923Z,309.38
2018-04-10T08:37:45.855Z,309.38
2018-04-10T08:38:45.833Z,309.38
2018-04-10T08:39:45.814Z,309.38
2018-04-10T08:40:45.833Z,309.38
2018-04-10T08:41:45.777Z,309.38
2018-04-10T08:42:45.749Z,309.38
2018-04-10T08:43:45.742Z,309.38
2018-04-10T08:44:45.740Z,309.38
2018-04-10T08:45:45.685Z,309.38
2018-04-10T08:46:45.678Z,309.38
2018-04-10T08:47:45.644Z,309.38
2018-04-10T08:48:45.619Z,309.38
2018-04-10T08:49:45.629Z,309.38
2018-04-10T08:50:45.574Z,309.38
2018-04-10T08:51:45.552Z,309.38
2018-04-10T08:52:45.535Z,309.38
2018-04-10T08:53:45.507Z,309.38
2018-04-10T08:54:45.547Z,309.38
2018-04-10T08:55:45.466Z,309.38
2018-04-10T08:56:45.450Z,309.38
2018-04-10T08:57:45.422Z,315.00
2018-04-10T08:58:45.421Z,315.00
2018-04-10T08:59:45.414Z,315.00
2018-04-10T09:00:45.403Z,315.00
2018-04-10T09:01:45.370Z,315.00
2018-04-10T09:02:45.315Z,315.00
2018-04-10T09:03:45.295Z,315.00
2018-04-10T09:04:45.274Z,309.38
2018-04-10T09:05:45.291Z,309.38
2018-04-10T09:06:45.234Z,309.38
2018-04-10T09:07:45.211Z,309.38
2018-04-10T09:08:45.440Z,309.38
2018-04-10T09:09:45.170Z,309.38
2018-04-10T09:10:45.147Z,309.38
2018-04-10T09:11:45.155Z,309.38
2018-04-10T09:12:45.142Z,315.00
2018-04-10T09:13:45.084Z,309.38
2018-04-10T09:14:45.074Z,315.00
2018-04-10T09:15:45.039Z,315.00
2018-04-10T09:16:45.065Z,309.38
2018-04-10T09:17:45.031Z,309.38
2018-04-10T09:18:44.973Z,309.38
2018-04-10T09:19:44.960Z,309.38
2018-04-10T09:20:44.935Z,315.00
2018-04-10T09:21:44.917Z,309.38
2018-04-10T09:22:44.925Z,309.38
2018-04-10T09:23:44.930Z,309.38
2018-04-10T09:24:45.384Z,309.38
2018-04-10T09:25:44.830Z,309.38
2018-04-10T09:26:44.810Z,309.38
2018-04-10T09:27:44.792Z,309.38
2018-04-10T09:28:44.796Z,309.38
2018-04-10T09:29:45.384Z,309.38
2018-04-10T09:30:44.722Z,309.38
2018-04-10T09:31:44.733Z,309.38
2018-04-10T09:32:44.692Z,309.38
2018-04-10T09:33:45.389Z,309.38
2018-04-10T09:34:44.672Z,309.38
2018-04-10T09:35:44.630Z,309.38
2018-04-10T09:36:44.598Z,309.38
2018-04-10T09:37:44.578Z,309.38
2018-04-10T09:38:44.607Z,309.38
2018-04-10T09:39:45.388Z,309.38
2018-04-10T09:40:44.535Z,309.38
2018-04-10T09:41:44.523Z,309.38
2018-04-10T09:42:44.486Z,309.38
2018-04-10T09:43:44.517Z,309.38
2018-04-10T09:44:44.432Z,309.38
2018-04-10T09:45:44.409Z,309.38
2018-04-10T09:46:44.421Z,309.38
2018-04-10T09:47:44.375Z,309.38
2018-04-10T09:48:44.348Z,309.38
2018-04-10T09:49:44.346Z,303.75
2018-04-10T09:50:44.344Z,309.38
2018-04-10T09:51:44.297Z,309.38
2018-04-10T09:52:44.274Z,309.38
2018-04-10T09:53:44.262Z,309.38
2018-04-10T09:54:44.231Z,309.38
2018-04-10T09:55:44.244Z,309.38
2018-04-10T09:56:44.191Z,309.38
2018-04-10T09:57:44.167Z,309.38
2018-04-10T09:58:44.173Z,309.38
2018-04-10T09:59:44.124Z,309.38
2018-04-10T10:00:44.142Z,309.38
2018-04-10T10:01:44.077Z,309.38
2018-04-10T10:02:44.075Z,309.38
2018-04-10T10:03:44.040Z,309.38
2018-04-10T10:04:44.021Z,303.75
2018-04-10T10:05:44.034Z,309.38
2018-04-10T10:06:43.980Z,309.38
2018-04-10T10:07:43.960Z,309.38
2018-04-10T10:08:43.946Z,309.38
2018-04-10T10:09:43.952Z,309.38
2018-04-10T10:10:43.902Z,309.38
2018-04-10T10:11:43.877Z,309.38
2018-04-10T10:12:43.878Z,309.38
2018-04-10T10:13:43.841Z,309.38
2018-04-10T10:14:43.855Z,309.38
2018-04-10T10:15:43.800Z,303.75
2018-04-10T10:16:43.955Z,303.75
2018-04-10T10:17:43.756Z,303.75
2018-04-10T10:18:43.737Z,303.75
2018-04-10T10:19:43.719Z,303.75
2018-04-10T10:20:43.695Z,303.75
2018-04-10T10:21:43.740Z,303.75
2018-04-10T10:22:43.693Z,303.75
2018-04-10T10:23:43.644Z,303.75
2018-04-10T10:24:43.616Z,303.75
2018-04-10T10:25:43.606Z,303.75
2018-04-10T10:26:43.574Z,303.75
2018-04-10T10:27:43.597Z,303.75
2018-04-10T10:28:43.568Z,303.75
2018-04-10T10:29:43.534Z,303.75
2018-04-10T10:30:43.494Z,303.75
2018-04-10T10:31:43.498Z,303.75
2018-04-10T10:32:43.493Z,303.75
2018-04-10T10:33:43.444Z,309.38
2018-04-10T10:34:43.420Z,303.75
2018-04-10T10:35:43.398Z,309.38
2018-04-10T10:36:43.380Z,303.75
2018-04-10T10:37:43.389Z,303.75
2018-04-10T10:38:43.390Z,303.75
2018-04-10T10:39:43.327Z,303.75
2018-04-10T10:40:43.297Z,303.75
2018-04-10T10:41:43.308Z,303.75
2018-04-10T10:42:43.255Z,303.75
2018-04-10T10:43:43.277Z,309.38
2018-04-10T10:44:43.240Z,303.75
2018-04-10T10:45:43.213Z,303.75
2018-04-10T10:46:43.213Z,303.75
2018-04-10T10:47:43.905Z,303.75
2018-04-10T10:48:43.141Z,303.75
2018-04-10T10:49:43.121Z,303.75
2018-04-10T10:50:43.135Z,303.75
2018-04-10T10:51:43.077Z,303.75
2018-04-10T10:52:43.925Z,303.75
2018-04-10T10:53:43.076Z,298.13
2018-04-10T10:54:43.022Z,298.13
2018-04-10T10:55:43.000Z,303.75
2018-04-10T10:56:42.985Z,303.75
2018-04-10T10:57:43.462Z,303.75
2018-04-10T10:58:42.942Z,303.75
2018-04-10T10:59:42.933Z,303.75
2018-04-10T11:00:42.932Z,303.75
2018-04-10T11:01:42.882Z,303.75
2018-04-10T11:02:42.900Z,309.38
2018-04-10T11:03:42.849Z,309.38
2018-04-10T11:04:42.827Z,303.75
2018-04-10T11:05:42.842Z,303.75
2018-04-10T11:06:42.784Z,303.75
2018-04-10T11:07:43.421Z,303.75
2018-04-10T11:08:42.784Z,303.75
2018-04-10T11:09:42.728Z,303.75
2018-04-10T11:10:42.707Z,303.75
2018-04-10T11:11:42.687Z,303.75
2018-04-10T11:12:42.669Z,303.75
2018-04-10T11:13:42.688Z,303.75
2018-04-10T11:14:42.667Z,303.75
2018-04-10T11:15:42.609Z,303.75
2018-04-10T11:16:42.598Z,303.75
2018-04-10T11:17:42.575Z,303.75
2018-04-10T11:18:42.552Z,303.75
2018-04-10T11:19:42.581Z,303.75
2018-04-10T11:20:42.512Z,303.75
2018-04-10T11:21:42.494Z,303.75
2018-04-10T11:22:42.474Z,303.75
2018-04-10T11:23:42.456Z,303.75
2018-04-10T11:24:42.480Z,303.75
2018-04-10T11:25:42.423Z,303.75
2018-04-10T11:26:42.403Z,303.75
2018-04-10T11:27:42.377Z,303.75
2018-04-10T11:28:42.362Z,303.75
2018-04-10T11:29:42.388Z,303.75
2018-04-10T11:30:42.327Z,303.75
2018-04-10T11:31:42.309Z,303.75
2018-04-10T11:32:42.290Z,303.75
2018-04-10T11:33:42.268Z,303.75
2018-04-10T11:34:42.286Z,303.75
2018-04-10T11:35:42.239Z,298.13
2018-04-10T11:36:42.252Z,298.13
2018-04-10T11:37:42.206Z,303.75
2018-04-10T11:38:42.171Z,309.38
2018-04-10T11:39:42.189Z,303.75
2018-04-10T11:40:42.139Z,303.75
2018-04-10T11:41:42.157Z,303.75
2018-04-10T11:42:42.096Z,303.75
2018-04-10T11:43:42.081Z,303.75
2018-04-10T11:44:42.064Z,303.75
2018-04-10T11:45:42.072Z,303.75
2018-04-10T11:46:42.021Z,303.75
2018-04-10T11:47:42.033Z,303.75
2018-04-10T11:48:42.027Z,298.13
2018-04-10T11:49:41.972Z,298.13
2018-04-10T11:50:41.945Z,298.13
2018-04-10T11:51:41.942Z,298.13
2018-04-10T11:52:41.911Z,303.75
2018-04-10T11:53:41.917Z,303.75
2018-04-10T11:54:41.885Z,298.13
2018-04-10T11:55:41.880Z,298.13
2018-04-10T11:56:41.834Z,298.13
2018-04-10T11:57:41.817Z,298.13
2018-04-10T11:58:41.796Z,298.13
2018-04-10T11:59:41.811Z,298.13
2018-04-10T12:00:41.757Z,298.13
2018-04-10T12:01:41.822Z,298.13
2018-04-10T12:02:41.720Z,298.13
2018-04-10T12:03:41.700Z,298.13
2018-04-10T12:04:41.684Z,309.38
2018-04-10T12:05:41.675Z,303.75
2018-04-10T12:06:41.681Z,303.75
2018-04-10T12:07:41.640Z,303.75
2018-04-10T12:08:41.607Z,303.75
2018-04-10T12:09:41.584Z,303.75
2018-04-10T12:10:41.571Z,303.75
2018-04-10T12:11:41.580Z,303.75
2018-04-10T12:12:41.576Z,303.75
2018-04-10T12:13:42.497Z,303.75
2018-04-10T12:14:41.494Z,303.75
2018-04-10T12:15:41.475Z,303.75
2018-04-10T12:16:41.509Z,303.75
2018-04-10T12:17:41.449Z,298.13
2018-04-10T12:18:41.424Z,303.75
2018-04-10T12:19:41.445Z,303.75
2018-04-10T12:20:41.400Z,303.75
2018-04-10T12:21:41.401Z,303.75
2018-04-10T12:22:41.386Z,303.75
2018-04-10T12:23:41.366Z,309.38
2018-04-10T12:24:41.320Z,309.38
2018-04-10T12:25:41.300Z,309.38
2018-04-10T12:26:41.281Z,309.38
2018-04-10T12:27:41.285Z,309.38
2018-04-10T12:28:41.948Z,309.38
2018-04-10T12:29:41.260Z,303.75
2018-04-10T12:30:41.214Z,303.75
2018-04-10T12:31:41.184Z,303.75
2018-04-10T12:32:41.164Z,303.75
2018-04-10T12:33:41.250Z,303.75
2018-04-10T12:34:41.147Z,309.38
2018-04-10T12:35:41.110Z,303.75
2018-04-10T12:36:41.144Z,303.75
2018-04-10T12:37:41.936Z,303.75
2018-04-10T12:38:41.118Z,303.75
2018-04-10T12:39:41.034Z,303.75
2018-04-10T12:40:41.020Z,303.75
2018-04-10T12:41:41.000Z,303.75
2018-04-10T12:42:40.979Z,303.75
2018-04-10T12:43:41.082Z,303.75
2018-04-10T12:44:40.943Z,303.75
2018-04-10T12:45:40.925Z,303.75